Impacts METAR Board
IDs:

KCVG - Cincinnati Intl, KY, US

Updated at: 1600 UTC 20 Aug 2019
Potential Impact None Slight Moderate High
Time 20/04Z 20/05Z 20/06Z 20/07Z 20/08Z 20/09Z 20/10Z 20/11Z 20/12Z 20/13Z 20/14Z 20/15Z 20/16Z
Temp84 83 81 79 78 78 76 76 76 80 83 87 90
Dewpt69 70 69 70 70 70 71 70 71 72 72 71 71
Altim30.05 30.05 30.06 30.05 30.04 30.05 30.06 30.06 30.05 30.04 30.09 30.09 30.09
VIS10 10 10 10 10 10 10 10 7 8 10 8 10
CIG-- -- 85 300 300 -- -- -- 300 300 250 250 250
CoverSCTSCTBKNBKNBKNFEWSCTSCTBKNBKNBKNBKNBKN
FltCatVFRVFRVFRVFRVFRVFRVFRVFRVFRVFRVFRVFRVFR
WX--------------------------
WDir3050700800350001700160260
WSpd6 5 6 0 7 0 4 0 0 4 0 4 7
WGst-- -- -- -- -- -- -- -- -- -- -- -- --
Raw hourly METARs
KCVG 200352Z 03006KT 10SM SCT250 29/21 A3005 RMK AO2 SLP160 T02890206
KCVG 200452Z 05005KT 10SM FEW250 SCT300 28/21 A3005 RMK AO2 SLP164 T02830211 403500206
KCVG 200552Z 07006KT 10SM FEW060 BKN085 BKN300 27/21 A3006 RMK AO2 SLP165 T02720206 10317 20272 53001
KCVG 200652Z 00000KT 10SM FEW090 BKN300 26/21 A3005 RMK AO2 SLP162 T02610211
KCVG 200752Z 08007KT 10SM BKN300 26/21 A3004 RMK AO2 SLP160 T02560211
KCVG 200852Z 00000KT 10SM FEW300 26/21 A3005 RMK AO2 SLP164 T02560211 55001
KCVG 200952Z 35004KT 10SM FEW060 SCT300 24/22 A3006 RMK AO2 SLP168 T02440217
KCVG 201052Z 00000KT 10SM FEW180 SCT300 24/21 A3006 RMK AO2 SLP166 CB DSNT NE T02440211
KCVG 201152Z 00000KT 7SM FEW200 BKN300 24/22 A3005 RMK AO2 SLP164 T02440217 10272 20233 58000
KCVG 201252Z 17004KT 8SM FEW220 BKN300 27/22 A3004 RMK AO2 SLP161 T02670222
KCVG 201352Z 00000KT 10SM SCT070 BKN250 28/22 A3009 RMK AO2 SLP176 T02830222
KCVG 201452Z 16004KT 8SM FEW070 SCT090 BKN250 31/22 A3009 RMK AO2 SLP178 T03060217 53014
KCVG 201552Z 26007KT 10SM FEW040 SCT085 BKN250 32/22 A3009 RMK AO2 SLP175 MDT CU N T03220217



Page loaded:  16:39 UTC  |   09:39 AM Pacific  |   10:39 AM Mountain  |   11:39 AM Central  |   12:39 PM Eastern

 

ADVISORIES

FORECASTS

FORECASTS

OBSERVATIONS

USER TOOLS

ABOUT US